createdAt,value
2018-10-01T00:07:28.628Z,44.34
2018-10-01T00:17:31.764Z,43.83
2018-10-01T00:27:34.889Z,43.90
2018-10-01T00:37:38.023Z,44.31
2018-10-01T00:47:41.150Z,43.92
2018-10-01T00:57:44.311Z,44.38
2018-10-01T01:07:47.598Z,44.05
2018-10-01T01:17:50.702Z,44.26
2018-10-01T01:27:54.533Z,44.14
2018-10-01T01:37:58.904Z,43.50
2018-10-01T01:48:02.060Z,43.72
2018-10-01T01:58:07.151Z,43.72
2018-10-01T02:08:10.180Z,43.82
2018-10-01T02:18:13.364Z,43.77
2018-10-01T02:28:16.713Z,43.70
2018-10-01T02:38:19.811Z,43.96
2018-10-01T02:48:22.949Z,43.95
2018-10-01T02:58:27.689Z,43.62
2018-10-01T03:08:30.803Z,43.76
2018-10-01T03:18:34.138Z,43.96
2018-10-01T03:28:37.317Z,44.10
2018-10-01T03:38:40.492Z,43.51
2018-10-01T03:48:43.647Z,44.05
2018-10-01T03:58:47.402Z,43.25
2018-10-01T04:08:52.218Z,44.14
2018-10-01T04:18:56.379Z,43.93
2018-10-01T04:28:59.402Z,43.76
2018-10-01T04:39:02.463Z,43.97
2018-10-01T04:49:05.974Z,44.10
2018-10-01T04:59:09.825Z,43.85
2018-10-01T05:09:12.895Z,43.80
2018-10-01T05:19:16.232Z,44.27
2018-10-01T05:29:20.194Z,44.31
2018-10-01T05:39:23.666Z,44.26
2018-10-01T05:49:26.816Z,44.24
2018-10-01T05:59:29.968Z,43.33
2018-10-01T06:09:33.071Z,43.45
2018-10-01T06:19:36.618Z,43.47
2018-10-01T06:29:40.359Z,43.76
2018-10-01T06:39:43.391Z,43.58
2018-10-01T06:49:46.422Z,44.05
2018-10-01T06:59:49.594Z,44.49
2018-10-01T07:09:53.375Z,44.32
2018-10-01T07:19:56.767Z,43.50
2018-10-01T07:29:59.869Z,43.71
2018-10-01T07:40:05.275Z,42.66
2018-10-01T07:50:08.816Z,44.57
2018-10-01T08:00:11.964Z,44.35
2018-10-01T08:10:14.835Z,43.83
2018-10-01T08:20:18.060Z,43.25
2018-10-01T08:30:21.340Z,42.40
2018-10-01T08:40:25.966Z,44.65
2018-10-01T08:50:35.689Z,43.82
2018-10-01T09:00:39.490Z,46.63
2018-10-01T09:10:42.514Z,45.00
2018-10-01T09:20:45.576Z,44.91
2018-10-01T09:30:48.634Z,45.26
2018-10-01T09:40:51.730Z,44.83
2018-10-01T09:50:54.819Z,44.38
2018-10-01T10:01:03.181Z,44.46
2018-10-01T10:11:06.308Z,44.24
2018-10-01T10:21:09.410Z,45.24
2018-10-01T10:31:12.525Z,44.90
2018-10-01T10:41:15.597Z,44.80
2018-10-01T10:51:18.760Z,45.23
2018-10-01T11:01:21.760Z,44.00
2018-10-01T11:11:24.838Z,41.34
2018-10-01T11:21:28.126Z,41.80
2018-10-01T11:31:31.168Z,42.37
2018-10-01T11:41:34.316Z,41.59
2018-10-01T11:51:37.543Z,45.07
2018-10-01T12:01:40.611Z,43.20
2018-10-01T12:11:43.707Z,42.54
2018-10-01T12:21:46.998Z,42.23
2018-10-01T12:31:50.443Z,43.20
2018-10-01T12:41:53.555Z,41.93
2018-10-01T12:51:56.765Z,42.41
2018-10-01T13:01:59.813Z,42.81
2018-10-01T13:12:10.187Z,42.82
2018-10-01T13:22:13.228Z,42.80
2018-10-01T13:32:16.491Z,41.84
2018-10-01T13:42:19.596Z,42.58
2018-10-01T13:52:22.796Z,43.49
2018-10-01T14:02:25.802Z,44.92
2018-10-01T14:12:29.051Z,44.63
2018-10-01T14:22:32.148Z,44.34
2018-10-01T14:32:35.270Z,44.50
2018-10-01T14:42:38.477Z,44.61
2018-10-01T14:52:41.572Z,44.48
2018-10-01T15:02:44.770Z,44.33
2018-10-01T15:12:47.791Z,44.64
2018-10-01T15:22:51.153Z,43.99
2018-10-01T15:32:56.042Z,43.81
2018-10-01T15:42:59.186Z,43.52
2018-10-01T15:53:02.208Z,43.91
2018-10-01T16:03:06.672Z,45.29
2018-10-01T16:13:10.403Z,45.78
2018-10-01T16:23:13.407Z,46.40
2018-10-01T16:33:16.387Z,46.05
2018-10-01T16:43:20.664Z,46.46
2018-10-01T16:53:24.244Z,46.27
2018-10-01T17:03:27.231Z,45.90
2018-10-01T17:13:30.492Z,45.33
2018-10-01T17:23:33.597Z,45.49
2018-10-01T17:33:36.592Z,45.76
2018-10-01T17:43:39.797Z,45.38
2018-10-01T17:53:42.970Z,44.77
2018-10-01T18:03:46.863Z,43.94
2018-10-01T18:13:49.996Z,43.19
2018-10-01T18:23:53.018Z,43.45
2018-10-01T18:33:56.884Z,43.39
2018-10-01T18:44:02.085Z,42.98
2018-10-01T18:54:05.312Z,43.20
2018-10-01T19:04:08.666Z,42.39
2018-10-01T19:14:12.971Z,42.40
2018-10-01T19:24:16.221Z,42.95
2018-10-01T19:34:19.263Z,42.70
2018-10-01T19:44:22.511Z,42.32
2018-10-01T19:54:25.551Z,42.91
2018-10-01T20:04:28.646Z,42.34
2018-10-01T20:14:31.802Z,42.19
2018-10-01T20:24:34.929Z,42.53
2018-10-01T20:34:38.022Z,44.77
2018-10-01T20:44:41.788Z,45.10
2018-10-01T20:54:44.823Z,45.15
2018-10-01T21:04:47.915Z,46.34
2018-10-01T21:14:51.020Z,45.61
2018-10-01T21:24:54.265Z,46.49
2018-10-01T21:34:57.301Z,46.10
2018-10-01T21:45:01.510Z,45.61
2018-10-01T21:55:04.619Z,46.25
2018-10-01T22:05:08.230Z,46.65
2018-10-01T22:15:11.334Z,45.90
2018-10-01T22:25:14.527Z,45.83
2018-10-01T22:35:18.605Z,45.93
2018-10-01T22:45:23.146Z,45.49
2018-10-01T22:55:26.166Z,46.28
2018-10-01T23:05:30.045Z,45.97
2018-10-01T23:15:33.194Z,45.42
2018-10-01T23:25:36.770Z,46.00
2018-10-01T23:35:41.182Z,45.92
2018-10-01T23:45:44.288Z,45.66
2018-10-01T23:55:47.393Z,44.71
